Time;durP1;ratioP1;P1;durP2;ratioP2;P2;SDS_P1;SDS_P2;PMS_P1;PMS_P2;Temp;Humidity;BMP_temperature;BMP_pressure;BME280_temperature;BME280_humidity;BME280_pressure;Samples;Min_cycle;Max_cycle;Signal;HPM_P1;HPM_P2
2021/04/16 00:00:53;;;;;;;11.85;10.43;;;;;;;;;;10044085;29;20095;-64
2021/04/16 00:05:50;;;;;;;12.10;10.13;;;;;;;;;;10044785;29;20062;-64
2021/04/16 00:10:49;;;;;;;12.82;9.77;;;;;;;;;;10044300;29;20159;-63
2021/04/16 00:15:46;;;;;;;14.98;10.50;;;;;;;;;;10043108;29;20059;-63
2021/04/16 00:20:45;;;;;;;10.77;9.38;;;;;;;;;;10043663;29;20071;-62
2021/04/16 00:25:42;;;;;;;11.13;8.82;;;;;;;;;;10043503;29;20543;-64
2021/04/16 00:30:41;;;;;;;11.80;9.68;;;;;;;;;;10043609;29;20098;-64
2021/04/16 00:35:38;;;;;;;13.20;10.23;;;;;;;;;;10043384;29;20043;-63
2021/04/16 00:40:38;;;;;;;10.95;9.55;;;;;;;;;;10042712;29;20098;-64
2021/04/16 00:45:36;;;;;;;11.43;10.23;;;;;;;;;;10042714;29;20502;-64
2021/04/16 00:50:36;;;;;;;12.77;10.63;;;;;;;;;;10042754;29;20082;-63
2021/04/16 00:55:33;;;;;;;9.57;8.52;;;;;;;;;;10041920;29;20090;-64
2021/04/16 01:00:32;;;;;;;9.90;8.90;;;;;;;;;;10042515;29;20083;-64
2021/04/16 01:05:30;;;;;;;11.52;10.30;;;;;;;;;;10043175;29;20079;-64
2021/04/16 01:10:27;;;;;;;11.20;9.18;;;;;;;;;;10040756;29;20055;-64
2021/04/16 01:15:28;;;;;;;10.43;9.20;;;;;;;;;;10042879;29;20484;-63
2021/04/16 01:20:28;;;;;;;14.30;9.40;;;;;;;;;;10042776;29;20048;-65
2021/04/16 01:25:26;;;;;;;13.95;10.98;;;;;;;;;;10042277;29;20377;-64
2021/04/16 01:30:25;;;;;;;16.98;15.23;;;;;;;;;;10041355;29;20529;-63
2021/04/16 01:35:27;;;;;;;15.77;14.10;;;;;;;;;;10040213;29;20055;-64
2021/04/16 01:40:24;;;;;;;20.92;16.98;;;;;;;;;;10042163;29;20478;-64
2021/04/16 01:45:24;;;;;;;35.13;23.20;;;;;;;;;;10041731;29;20078;-64
2021/04/16 01:50:21;;;;;;;21.95;15.00;;;;;;;;;;10041225;29;20188;-63
2021/04/16 01:55:19;;;;;;;14.48;11.77;;;;;;;;;;10041319;29;20051;-64
2021/04/16 02:00:17;;;;;;;13.18;11.88;;;;;;;;;;10040777;29;20051;-63
2021/04/16 02:05:16;;;;;;;15.90;11.65;;;;;;;;;;10040922;29;20083;-64
2021/04/16 02:10:14;;;;;;;14.07;12.52;;;;;;;;;;10039999;29;20083;-64
2021/04/16 02:15:12;;;;;;;17.08;12.77;;;;;;;;;;10040986;29;20087;-64
2021/04/16 02:20:10;;;;;;;18.15;15.05;;;;;;;;;;10040177;29;20533;-64
2021/04/16 02:25:09;;;;;;;20.85;17.20;;;;;;;;;;10039985;29;20486;-64
2021/04/16 02:30:08;;;;;;;24.83;19.95;;;;;;;;;;10039504;29;20066;-64
2021/04/16 02:35:06;;;;;;;21.08;17.08;;;;;;;;;;10039783;29;20083;-65
2021/04/16 02:40:04;;;;;;;23.05;18.20;;;;;;;;;;10039597;29;20063;-64
2021/04/16 02:45:02;;;;;;;15.05;12.68;;;;;;;;;;10038914;29;20083;-62
2021/04/16 02:50:00;;;;;;;16.17;12.57;;;;;;;;;;10038829;29;20060;-63
2021/04/16 02:54:57;;;;;;;15.02;12.25;;;;;;;;;;10039036;29;20552;-63
2021/04/16 02:59:54;;;;;;;14.38;12.05;;;;;;;;;;10038937;29;20406;-62
2021/04/16 03:04:53;;;;;;;13.38;11.88;;;;;;;;;;10039039;29;20086;-63
2021/04/16 03:09:50;;;;;;;21.15;17.30;;;;;;;;;;10038183;29;20055;-63
2021/04/16 03:14:47;;;;;;;16.83;15.02;;;;;;;;;;10038405;29;20524;-63
2021/04/16 03:19:44;;;;;;;18.60;15.27;;;;;;;;;;10038181;29;20055;-63
2021/04/16 03:24:43;;;;;;;15.23;13.63;;;;;;;;;;10038041;29;20074;-64
2021/04/16 03:29:40;;;;;;;15.13;13.48;;;;;;;;;;10035966;29;20071;-63
2021/04/16 03:34:37;;;;;;;14.57;12.30;;;;;;;;;;10037948;29;20075;-64
2021/04/16 03:39:35;;;;;;;13.65;12.25;;;;;;;;;;10037602;29;20498;-62
2021/04/16 03:44:34;;;;;;;17.13;14.85;;;;;;;;;;10035620;29;20087;-63
2021/04/16 03:49:32;;;;;;;16.45;13.85;;;;;;;;;;10032858;29;20513;-63
2021/04/16 03:54:30;;;;;;;13.05;11.65;;;;;;;;;;10033531;29;20104;-64
2021/04/16 03:59:27;;;;;;;15.27;12.35;;;;;;;;;;10033748;29;20482;-64
2021/04/16 04:04:26;;;;;;;22.27;14.82;;;;;;;;;;10034621;29;20043;-65
2021/04/16 04:09:23;;;;;;;17.95;14.73;;;;;;;;;;10036522;29;20053;-64
2021/04/16 04:14:22;;;;;;;17.13;14.40;;;;;;;;;;10037085;29;20082;-63
2021/04/16 04:19:20;;;;;;;16.85;12.40;;;;;;;;;;10036820;29;20051;-63
2021/04/16 04:24:18;;;;;;;17.17;14.40;;;;;;;;;;10037122;29;20086;-63
2021/04/16 04:29:18;;;;;;;14.02;12.10;;;;;;;;;;10036725;29;20056;-63
2021/04/16 04:34:16;;;;;;;13.93;12.32;;;;;;;;;;10042549;29;20050;-61
2021/04/16 04:39:13;;;;;;;15.07;12.75;;;;;;;;;;10041696;29;20060;-63
2021/04/16 04:44:12;;;;;;;13.82;12.30;;;;;;;;;;10043905;29;20095;-64
2021/04/16 04:49:09;;;;;;;19.33;13.43;;;;;;;;;;10043326;29;20071;-64
2021/04/16 04:54:07;;;;;;;17.98;14.05;;;;;;;;;;10043688;29;20079;-62
2021/04/16 04:59:05;;;;;;;15.18;12.70;;;;;;;;;;10040956;29;20071;-63
2021/04/16 05:04:05;;;;;;;16.38;12.80;;;;;;;;;;10040631;29;20094;-63
2021/04/16 05:09:02;;;;;;;14.65;12.25;;;;;;;;;;10039884;29;20287;-64
2021/04/16 05:14:00;;;;;;;14.82;13.30;;;;;;;;;;10042946;29;20409;-63
2021/04/16 05:18:59;;;;;;;21.00;15.25;;;;;;;;;;10042592;29;20069;-62
2021/04/16 05:23:57;;;;;;;18.00;13.85;;;;;;;;;;10042208;29;20532;-63
2021/04/16 05:28:55;;;;;;;22.45;15.32;;;;;;;;;;10041452;29;20055;-63
2021/04/16 05:33:52;;;;;;;17.38;14.75;;;;;;;;;;10041674;29;20091;-63
2021/04/16 05:38:50;;;;;;;16.52;12.20;;;;;;;;;;10041524;29;20055;-62
2021/04/16 05:43:48;;;;;;;14.70;12.73;;;;;;;;;;10040476;29;20075;-64
2021/04/16 05:48:45;;;;;;;19.48;14.50;;;;;;;;;;10040969;29;20079;-64
2021/04/16 05:53:42;;;;;;;15.45;13.85;;;;;;;;;;10041144;29;20044;-63
2021/04/16 05:58:40;;;;;;;16.58;13.68;;;;;;;;;;10040828;29;20075;-64
2021/04/16 06:03:38;;;;;;;16.52;13.98;;;;;;;;;;10039091;29;20090;-62
2021/04/16 06:08:36;;;;;;;14.43;12.02;;;;;;;;;;10040088;29;20071;-63
2021/04/16 06:13:33;;;;;;;12.70;11.30;;;;;;;;;;10040892;29;20468;-63
2021/04/16 06:18:36;;;;;;;14.55;10.88;;;;;;;;;;10039929;29;20054;-63
2021/04/16 06:23:34;;;;;;;12.20;11.05;;;;;;;;;;10039361;29;20489;-63
2021/04/16 06:28:32;;;;;;;13.23;11.82;;;;;;;;;;10039234;29;20056;-63
2021/04/16 06:33:31;;;;;;;14.75;12.20;;;;;;;;;;10039776;29;20071;-64
2021/04/16 06:38:30;;;;;;;14.45;12.27;;;;;;;;;;10038884;29;20059;-64
2021/04/16 06:43:34;;;;;;;15.90;11.85;;;;;;;;;;10039229;29;20075;-64
2021/04/16 06:48:32;;;;;;;17.10;14.17;;;;;;;;;;10039514;29;20043;-62
2021/04/16 06:53:31;;;;;;;13.88;11.57;;;;;;;;;;10039148;29;20430;-64
2021/04/16 06:58:31;;;;;;;10.88;9.75;;;;;;;;;;10038797;29;20078;-63
2021/04/16 07:03:30;;;;;;;12.75;10.48;;;;;;;;;;10038867;29;20083;-62
2021/04/16 07:08:30;;;;;;;13.52;10.88;;;;;;;;;;10038571;29;20043;-65
2021/04/16 07:13:33;;;;;;;14.68;10.25;;;;;;;;;;10036432;29;20513;-65
2021/04/16 07:18:33;;;;;;;10.25;9.25;;;;;;;;;;10038377;29;20083;-63
2021/04/16 07:23:46;;;;;;;14.30;9.32;;;;;;;;;;10038659;29;20101;-63
2021/04/16 07:29:03;;;;;;;10.05;9.05;;;;;;;;;;10035667;29;20052;-63
2021/04/16 07:34:01;;;;;;;11.65;9.38;;;;;;;;;;10038148;29;20079;-64
2021/04/16 07:39:20;;;;;;;14.75;8.75;;;;;;;;;;10037743;29;20704;-64
2021/04/16 07:44:22;;;;;;;13.35;7.45;;;;;;;;;;10037015;29;20083;-64
2021/04/16 07:49:23;;;;;;;9.30;7.05;;;;;;;;;;10037896;29;20039;-63
2021/04/16 07:54:21;;;;;;;15.50;8.10;;;;;;;;;;10037806;29;20497;-63
2021/04/16 07:59:19;;;;;;;8.27;5.57;;;;;;;;;;10037440;29;20048;-63
2021/04/16 08:04:30;;;;;;;10.77;9.30;;;;;;;;;;10037576;29;20075;-62
2021/04/16 08:09:29;;;;;;;11.13;9.35;;;;;;;;;;10042876;29;20044;-62
2021/04/16 08:14:29;;;;;;;18.40;9.88;;;;;;;;;;10045146;29;20497;-65
2021/04/16 08:19:29;;;;;;;13.10;7.90;;;;;;;;;;10044443;29;20086;-63
2021/04/16 08:24:29;;;;;;;17.50;10.00;;;;;;;;;;10044514;29;20090;-63
2021/04/16 08:29:30;;;;;;;16.20;11.20;;;;;;;;;;10044570;29;20110;-64
2021/04/16 08:34:29;;;;;;;11.57;5.60;;;;;;;;;;10043503;29;20051;-64
2021/04/16 08:39:29;;;;;;;6.07;5.35;;;;;;;;;;10043394;29;20521;-64
2021/04/16 08:44:28;;;;;;;11.90;7.13;;;;;;;;;;10044178;29;20083;-64
2021/04/16 08:49:27;;;;;;;7.07;5.78;;;;;;;;;;10041518;29;20044;-64
2021/04/16 08:54:26;;;;;;;11.73;6.15;;;;;;;;;;10044123;29;20620;-64
2021/04/16 08:59:25;;;;;;;23.05;9.23;;;;;;;;;;10043933;29;20039;-64
2021/04/16 09:04:41;;;;;;;16.05;6.35;;;;;;;;;;10043324;29;20086;-65
2021/04/16 09:09:41;;;;;;;7.80;6.25;;;;;;;;;;10040797;29;20052;-64
2021/04/16 09:14:51;;;;;;;9.57;6.68;;;;;;;;;;10043113;29;20067;-64
2021/04/16 09:19:57;;;;;;;8.15;6.28;;;;;;;;;;10042699;29;20087;-64
2021/04/16 09:24:55;;;;;;;7.90;4.63;;;;;;;;;;10041494;29;20090;-63
2021/04/16 09:29:53;;;;;;;7.05;4.95;;;;;;;;;;10042106;29;20071;-63
2021/04/16 09:34:53;;;;;;;6.70;5.40;;;;;;;;;;10042132;29;20087;-63
2021/04/16 09:39:59;;;;;;;7.57;5.88;;;;;;;;;;10041102;29;20090;-62
2021/04/16 09:44:59;;;;;;;5.45;4.85;;;;;;;;;;10041658;29;20107;-63
2021/04/16 09:49:57;;;;;;;8.68;6.57;;;;;;;;;;10041765;29;20047;-63
2021/04/16 09:54:54;;;;;;;11.35;6.22;;;;;;;;;;10040596;29;20048;-62
2021/04/16 09:59:54;;;;;;;9.35;6.15;;;;;;;;;;10041344;29;20047;-63
2021/04/16 10:04:55;;;;;;;10.07;6.40;;;;;;;;;;10040748;29;20087;-63
2021/04/16 10:10:00;;;;;;;8.60;5.97;;;;;;;;;;10040917;29;20524;-63
2021/04/16 10:14:58;;;;;;;12.82;8.63;;;;;;;;;;10040687;29;20067;-63
2021/04/16 10:20:08;;;;;;;11.90;7.10;;;;;;;;;;10040460;29;20075;-63
2021/04/16 12:39:14;;;;;;;5.22;4.13;;;;;;;;;;10037049;29;20073;-64
2021/04/16 12:44:16;;;;;;;5.85;4.75;;;;;;;;;;10036525;29;20509;-63
2021/04/16 12:49:13;;;;;;;11.50;6.32;;;;;;;;;;10036957;29;20498;-63
2021/04/16 12:54:11;;;;;;;5.03;3.85;;;;;;;;;;10040648;29;20047;-64
2021/04/16 12:59:11;;;;;;;10.30;8.27;;;;;;;;;;10043444;29;20149;-63
2021/04/16 13:04:08;;;;;;;15.98;7.28;;;;;;;;;;10042904;29;20087;-64
2021/04/16 13:09:06;;;;;;;10.30;6.22;;;;;;;;;;10043431;29;20432;-65
2021/04/16 13:14:05;;;;;;;5.53;4.30;;;;;;;;;;10042494;29;20052;-62
2021/04/16 13:19:03;;;;;;;8.52;4.78;;;;;;;;;;10043220;29;20071;-62
2021/04/16 13:24:01;;;;;;;9.18;4.85;;;;;;;;;;10042675;29;20083;-64
2021/04/16 13:28:59;;;;;;;10.93;8.57;;;;;;;;;;10042292;29;20560;-63
2021/04/16 13:33:57;;;;;;;9.75;5.28;;;;;;;;;;10042085;29;20054;-64
2021/04/16 13:38:59;;;;;;;6.90;4.93;;;;;;;;;;10042080;29;20067;-64
2021/04/16 13:43:58;;;;;;;8.30;4.90;;;;;;;;;;10041830;29;20075;-64
2021/04/16 13:48:55;;;;;;;14.45;6.78;;;;;;;;;;10041799;29;20542;-64
2021/04/16 13:53:54;;;;;;;10.45;6.97;;;;;;;;;;10040012;29;20090;-64
2021/04/16 13:58:51;;;;;;;8.25;5.82;;;;;;;;;;10041314;29;20074;-64
2021/04/16 14:03:50;;;;;;;8.73;6.18;;;;;;;;;;10039279;29;20087;-64
2021/04/16 14:08:51;;;;;;;14.27;9.60;;;;;;;;;;10040346;29;20083;-64
2021/04/16 14:13:49;;;;;;;15.98;6.50;;;;;;;;;;10040739;29;20054;-64
2021/04/16 14:18:48;;;;;;;8.38;6.00;;;;;;;;;;10040543;29;20050;-64
2021/04/16 14:23:47;;;;;;;19.55;10.45;;;;;;;;;;10039958;29;20524;-64
2021/04/16 14:28:44;;;;;;;12.68;8.88;;;;;;;;;;10039682;29;20063;-63
2021/04/16 14:33:43;;;;;;;14.15;11.57;;;;;;;;;;10039154;29;20509;-63
2021/04/16 14:39:01;;;;;;;11.18;8.90;;;;;;;;;;10039013;29;20054;-63
2021/04/16 14:43:58;;;;;;;10.07;5.85;;;;;;;;;;10039422;29;20071;-63
2021/04/16 14:48:56;;;;;;;7.97;5.25;;;;;;;;;;10039484;29;20438;-63
2021/04/16 14:53:59;;;;;;;11.45;7.25;;;;;;;;;;10038202;29;20075;-64
2021/04/16 14:58:59;;;;;;;7.35;5.07;;;;;;;;;;10038908;29;20074;-63
2021/04/16 15:03:58;;;;;;;15.88;10.07;;;;;;;;;;10027276;29;20518;-62
2021/04/16 15:08:56;;;;;;;26.75;16.92;;;;;;;;;;10005266;29;20098;-60
2021/04/16 15:13:54;;;;;;;33.17;18.92;;;;;;;;;;10012347;29;20072;-62
2021/04/16 15:18:51;;;;;;;14.65;9.50;;;;;;;;;;10007034;29;20040;-63
2021/04/16 15:23:50;;;;;;;15.10;10.82;;;;;;;;;;9998885;29;20068;-62
2021/04/16 15:28:48;;;;;;;24.58;13.60;;;;;;;;;;9999854;29;20064;-64
2021/04/16 15:49:18;;;;;;;20.38;11.98;;;;;;;;;;9999286;29;20071;-62
2021/04/16 15:54:15;;;;;;;19.63;11.90;;;;;;;;;;9999211;29;20075;-64
2021/04/16 15:59:16;;;;;;;19.13;12.23;;;;;;;;;;9997262;29;20059;-64
2021/04/16 16:04:13;;;;;;;25.13;16.52;;;;;;;;;;9998962;29;20545;-63
2021/04/16 16:09:12;;;;;;;23.33;14.82;;;;;;;;;;9996092;29;20083;-63
2021/04/16 16:14:11;;;;;;;26.40;15.05;;;;;;;;;;9995085;29;20060;-64
2021/04/16 16:19:09;;;;;;;25.33;14.13;;;;;;;;;;9997121;29;20080;-65
2021/04/16 16:24:08;;;;;;;13.68;8.50;;;;;;;;;;9996951;29;20084;-64
2021/04/16 16:29:07;;;;;;;68.05;38.05;;;;;;;;;;10000116;29;20094;-63
2021/04/16 16:34:05;;;;;;;38.58;27.23;;;;;;;;;;10004072;29;20071;-64
2021/04/16 16:39:03;;;;;;;23.17;16.83;;;;;;;;;;10004076;29;20446;-64
2021/04/16 16:44:01;;;;;;;14.38;10.30;;;;;;;;;;10003245;29;20083;-64
2021/04/16 16:48:58;;;;;;;23.15;13.13;;;;;;;;;;10002894;29;20079;-63
2021/04/16 16:53:55;;;;;;;15.32;10.65;;;;;;;;;;10003244;29;20080;-63
2021/04/16 16:58:54;;;;;;;20.67;15.35;;;;;;;;;;10003165;29;20084;-64
2021/04/16 17:03:51;;;;;;;13.10;8.57;;;;;;;;;;10002835;29;20083;-63
2021/04/16 17:08:49;;;;;;;9.73;5.93;;;;;;;;;;10002818;29;20502;-64
2021/04/16 17:13:48;;;;;;;15.27;11.07;;;;;;;;;;10002417;29;20075;-64
2021/04/16 17:18:46;;;;;;;30.30;18.40;;;;;;;;;;10001796;29;20056;-64
2021/04/16 17:23:44;;;;;;;37.70;21.15;;;;;;;;;;10002074;29;20494;-64
2021/04/16 17:28:42;;;;;;;15.32;10.10;;;;;;;;;;10001452;29;20088;-64
2021/04/16 17:33:40;;;;;;;10.73;8.13;;;;;;;;;;10001170;29;20080;-63
2021/04/16 17:38:40;;;;;;;16.17;10.70;;;;;;;;;;10001181;29;20064;-64
2021/04/16 17:43:39;;;;;;;11.15;9.13;;;;;;;;;;10001277;29;20561;-63
2021/04/16 17:48:38;;;;;;;16.58;12.05;;;;;;;;;;10001005;29;20125;-63
2021/04/16 17:53:36;;;;;;;26.55;23.77;;;;;;;;;;10001286;29;20078;-63
2021/04/16 17:58:36;;;;;;;30.63;21.63;;;;;;;;;;10000689;29;20060;-64
2021/04/16 18:03:34;;;;;;;40.03;27.23;;;;;;;;;;10000555;29;20090;-64
2021/04/16 18:08:39;;;;;;;38.92;25.02;;;;;;;;;;9999658;29;20082;-64
2021/04/16 18:13:41;;;;;;;24.02;18.05;;;;;;;;;;10000087;29;20083;-63
2021/04/16 18:18:38;;;;;;;23.85;15.73;;;;;;;;;;10000297;29;20072;-63
2021/04/16 18:23:38;;;;;;;10.10;7.78;;;;;;;;;;9999688;29;20430;-64
2021/04/16 18:28:36;;;;;;;11.70;7.72;;;;;;;;;;9999480;29;20083;-64
2021/04/16 18:33:34;;;;;;;13.63;8.65;;;;;;;;;;9999026;29;20063;-63
2021/04/16 18:38:34;;;;;;;8.82;7.25;;;;;;;;;;9998199;29;20052;-65
2021/04/16 18:43:31;;;;;;;10.20;6.88;;;;;;;;;;9999096;29;20076;-65
2021/04/16 18:48:30;;;;;;;11.40;8.70;;;;;;;;;;9998288;29;20087;-62
2021/04/16 18:53:32;;;;;;;12.80;11.02;;;;;;;;;;9998007;29;20063;-64
2021/04/16 18:58:31;;;;;;;5.07;4.55;;;;;;;;;;9998088;29;20079;-63
2021/04/16 19:03:29;;;;;;;5.93;4.38;;;;;;;;;;9998367;29;20067;-64
2021/04/16 19:08:26;;;;;;;4.72;3.92;;;;;;;;;;9997654;29;20094;-64
2021/04/16 19:13:25;;;;;;;6.75;3.53;;;;;;;;;;9997730;29;20056;-65
2021/04/16 19:18:23;;;;;;;14.95;6.55;;;;;;;;;;9997667;29;20520;-63
2021/04/16 19:23:22;;;;;;;9.15;7.22;;;;;;;;;;9997695;29;20076;-64
2021/04/16 19:28:20;;;;;;;5.97;4.20;;;;;;;;;;9997202;29;20087;-62
2021/04/16 19:33:19;;;;;;;5.13;4.10;;;;;;;;;;9997842;29;20052;-62
2021/04/16 19:38:18;;;;;;;6.13;4.90;;;;;;;;;;9997132;29;20506;-61
2021/04/16 19:43:16;;;;;;;5.97;4.45;;;;;;;;;;9997217;29;20102;-62
2021/04/16 19:58:58;;;;;;;5.60;4.57;;;;;;;;;;9996991;29;20079;-61
2021/04/16 20:20:01;;;;;;;6.13;3.95;;;;;;;;;;10005946;29;20529;-61
2021/04/16 20:25:10;;;;;;;6.07;4.60;;;;;;;;;;10005720;29;20565;-62
2021/04/16 20:30:11;;;;;;;4.20;3.80;;;;;;;;;;10005561;29;20506;-61
2021/04/16 20:35:10;;;;;;;5.25;3.90;;;;;;;;;;10005146;29;20044;-61
2021/04/16 20:40:10;;;;;;;9.45;8.45;;;;;;;;;;10005013;29;20547;-62
2021/04/16 20:45:09;;;;;;;4.47;4.00;;;;;;;;;;10005311;29;20091;-62
2021/04/16 20:50:09;;;;;;;7.07;4.35;;;;;;;;;;10004433;29;20087;-60
2021/04/16 20:55:10;;;;;;;6.78;4.13;;;;;;;;;;10004182;29;20044;-62
2021/04/16 21:00:11;;;;;;;9.65;6.32;;;;;;;;;;10004028;29;20090;-61
2021/04/16 21:05:13;;;;;;;6.85;4.22;;;;;;;;;;10004322;29;20513;-62
2021/04/16 21:10:11;;;;;;;7.95;5.85;;;;;;;;;;10003097;29;20063;-62
2021/04/16 21:15:12;;;;;;;6.18;4.40;;;;;;;;;;9998281;29;20486;-62
2021/04/16 21:20:28;;;;;;;9.07;6.80;;;;;;;;;;9997989;29;20080;-62
2021/04/16 21:25:26;;;;;;;5.95;5.03;;;;;;;;;;9998755;29;20091;-62
2021/04/16 21:30:25;;;;;;;4.63;3.75;;;;;;;;;;10002443;29;20103;-62
2021/04/16 21:35:23;;;;;;;5.82;5.18;;;;;;;;;;10001653;29;20075;-62
2021/04/16 21:40:32;;;;;;;4.68;4.28;;;;;;;;;;10001791;29;20074;-62
2021/04/16 21:45:32;;;;;;;13.45;4.75;;;;;;;;;;10000782;29;20442;-62
2021/04/16 21:50:31;;;;;;;8.20;5.70;;;;;;;;;;10000791;29;20086;-62
2021/04/16 21:55:29;;;;;;;5.55;5.05;;;;;;;;;;10001099;29;20525;-62
2021/04/16 22:00:30;;;;;;;4.90;4.40;;;;;;;;;;10000866;29;20079;-61
2021/04/16 22:05:30;;;;;;;6.40;4.60;;;;;;;;;;10000273;29;20091;-62
2021/04/16 22:10:30;;;;;;;5.05;4.35;;;;;;;;;;10000602;29;20075;-62
2021/04/16 22:15:29;;;;;;;7.30;4.20;;;;;;;;;;10000145;29;20509;-62
2021/04/16 22:20:28;;;;;;;4.95;4.30;;;;;;;;;;10000861;29;20064;-63
2021/04/16 22:25:28;;;;;;;5.05;4.55;;;;;;;;;;9999387;29;20090;-62
2021/04/16 22:30:30;;;;;;;8.95;4.22;;;;;;;;;;10000982;29;20060;-61
2021/04/16 22:35:30;;;;;;;5.22;4.72;;;;;;;;;;9999938;29;20052;-61
2021/04/16 22:40:29;;;;;;;63.05;33.25;;;;;;;;;;9999845;29;20079;-62
2021/04/16 22:45:32;;;;;;;5.28;4.78;;;;;;;;;;9999627;29;20481;-63
2021/04/16 22:50:30;;;;;;;6.15;5.00;;;;;;;;;;9998970;29;20418;-62
2021/04/16 22:55:29;;;;;;;5.15;4.70;;;;;;;;;;9998508;29;20083;-62
2021/04/16 23:00:29;;;;;;;5.75;5.25;;;;;;;;;;9996959;29;20504;-61
2021/04/16 23:05:29;;;;;;;7.22;4.68;;;;;;;;;;9997143;29;20080;-61
2021/04/16 23:10:28;;;;;;;6.82;4.53;;;;;;;;;;9999020;29;20087;-62
2021/04/16 23:15:28;;;;;;;6.40;4.38;;;;;;;;;;9998417;29;20091;-62
2021/04/16 23:20:27;;;;;;;13.23;8.25;;;;;;;;;;9997357;29;20075;-61
2021/04/16 23:25:27;;;;;;;7.05;5.55;;;;;;;;;;9998497;29;20129;-62
2021/04/16 23:30:26;;;;;;;7.68;6.53;;;;;;;;;;9997937;29;20489;-62
2021/04/16 23:35:23;;;;;;;8.85;4.72;;;;;;;;;;9998089;29;20075;-62
2021/04/16 23:40:22;;;;;;;6.88;4.55;;;;;;;;;;9997776;29;20067;-62
2021/04/16 23:45:19;;;;;;;5.78;5.18;;;;;;;;;;9997794;29;20078;-62
2021/04/16 23:50:16;;;;;;;5.47;4.97;;;;;;;;;;9997619;29;20083;-62
2021/04/16 23:55:14;;;;;;;5.25;4.68;;;;;;;;;;9996732;29;20086;-62
